Terminal Aerodrome Forecast
Issued by NWS Upton, NY

Home | Current Version | Previous Version | Text Only | Print | Product List | Glossary On
Versions: 1 2 3 4 5 6 7 8 9 10 11 12 13 14 15 16 17 18 19 20 21 22 23 24 25 26 27 28 29 30 31 32
000
FTUS41 KOKX 232028 AAA
TAFJFK
TAF AMD
KJFK 232028Z 2320/2424 18013KT P6SM SCT200 BKN250
     FM240100 19007KT P6SM BKN250
     FM240900 14004KT P6SM BKN200
     FM241300 10006KT P6SM BKN150
     FM241800 12007KT P6SM SCT070 BKN100=

USA.gov is the U.S. government's official web portal to all federal, state and local government web resources and services.